Time;durP1;ratioP1;P1;durP2;ratioP2;P2;SDS_P1;SDS_P2;PMS_P1;PMS_P2;Temp;Humidity;BMP_temperature;BMP_pressure;BME280_temperature;BME280_humidity;BME280_pressure;Samples;Min_cycle;Max_cycle;Signal;HPM_P1;HPM_P2
2022/06/01 00:02:26;;;;;;;17.30;10.75;;;;;;;14.20;100.00;98596.00;4469892;32;20120;-71
2022/06/01 00:04:59;;;;;;;18.17;10.30;;;;;;;14.20;100.00;98588.09;4469673;32;20139;-71
2022/06/01 00:07:26;;;;;;;20.10;10.38;;;;;;;14.21;100.00;98586.28;4469988;32;20084;-71
2022/06/01 00:09:54;;;;;;;19.55;10.13;;;;;;;14.16;100.00;98586.78;4469757;32;20120;-71
2022/06/01 00:12:22;;;;;;;18.08;10.48;;;;;;;14.17;100.00;98593.72;4469966;32;20108;-71
2022/06/01 00:14:49;;;;;;;17.85;10.23;;;;;;;14.15;100.00;98589.56;4470067;32;20089;-71
2022/06/01 00:17:16;;;;;;;16.58;9.40;;;;;;;14.15;100.00;98587.75;4469957;32;20100;-71
2022/06/01 00:19:43;;;;;;;18.42;9.43;;;;;;;13.99;100.00;98583.31;4470024;32;20158;-71
2022/06/01 00:22:14;;;;;;;15.93;9.20;;;;;;;14.01;100.00;98580.53;4469959;32;20084;-71
2022/06/01 00:24:43;;;;;;;16.83;8.75;;;;;;;13.92;100.00;98587.59;4469622;32;20185;-71
2022/06/01 00:27:12;;;;;;;14.25;8.77;;;;;;;13.81;100.00;98583.47;4469724;32;20655;-71
2022/06/01 00:29:39;;;;;;;16.40;8.90;;;;;;;13.73;100.00;98579.97;4469696;32;20390;-71
2022/06/01 00:32:11;;;;;;;12.52;8.20;;;;;;;13.64;100.00;98577.34;4481460;32;20468;-71
2022/06/01 00:34:39;;;;;;;13.00;8.38;;;;;;;13.66;100.00;98582.44;4485099;32;20416;-71
2022/06/01 00:37:07;;;;;;;14.93;8.48;;;;;;;13.68;100.00;98577.03;4485193;31;20533;-71
2022/06/01 00:39:35;;;;;;;13.35;8.35;;;;;;;13.62;100.00;98579.31;4485193;31;20526;-71
2022/06/01 00:42:18;;;;;;;15.13;8.68;;;;;;;13.58;100.00;98570.09;4485638;31;20111;-71
2022/06/01 00:44:48;;;;;;;13.18;8.30;;;;;;;13.51;100.00;98565.66;4485254;31;20084;-71
2022/06/01 00:47:19;;;;;;;14.32;7.95;;;;;;;13.47;100.00;98565.12;4485691;31;20100;-71
2022/06/01 00:49:51;;;;;;;15.35;8.88;;;;;;;13.45;100.00;98569.72;4485659;32;20564;-71
2022/06/01 00:52:35;;;;;;;13.13;8.52;;;;;;;13.49;100.00;98563.19;4485417;32;20151;-71
2022/06/01 00:55:10;;;;;;;17.48;8.05;;;;;;;13.47;100.00;98557.22;4472788;32;20473;-71
2022/06/01 00:57:39;;;;;;;13.43;8.32;;;;;;;13.47;100.00;98562.50;4483972;32;20111;-71
2022/06/01 01:00:11;;;;;;;12.10;8.02;;;;;;;13.41;100.00;98561.31;4485264;31;20093;-71
2022/06/01 01:02:39;;;;;;;14.52;8.00;;;;;;;13.33;100.00;98571.81;4484017;32;20142;-71
2022/06/01 01:05:09;;;;;;;12.40;7.95;;;;;;;13.24;100.00;98573.56;4483502;32;20084;-71
2022/06/01 01:07:37;;;;;;;16.40;8.48;;;;;;;13.20;100.00;98559.13;4484459;32;20115;-71
2022/06/01 01:10:05;;;;;;;14.45;8.73;;;;;;;13.17;100.00;98569.09;4483728;32;20184;-71
2022/06/01 01:12:56;;;;;;;11.77;7.68;;;;;;;13.13;100.00;98565.97;4485157;31;20119;-71
2022/06/01 01:15:20;;;;;;;13.07;7.80;;;;;;;13.10;100.00;98575.00;4485023;32;20115;-71
2022/06/01 01:17:50;;;;;;;14.70;8.30;;;;;;;13.16;100.00;98570.94;4485251;31;20107;-71
2022/06/01 01:20:17;;;;;;;15.48;9.48;;;;;;;13.12;100.00;98575.66;4483893;32;20450;-71
2022/06/01 01:23:08;;;;;;;18.45;10.02;;;;;;;13.08;100.00;98576.13;4483866;32;20159;-72
2022/06/01 01:25:40;;;;;;;16.20;9.18;;;;;;;13.03;100.00;98575.78;4484917;31;20119;-71
2022/06/01 01:28:09;;;;;;;19.20;10.38;;;;;;;13.01;100.00;98580.41;4485062;31;20107;-71
2022/06/01 01:30:36;;;;;;;19.42;9.18;;;;;;;13.06;100.00;98578.09;4484778;31;20095;-71
2022/06/01 01:33:18;;;;;;;20.45;9.60;;;;;;;13.08;100.00;98573.50;4485034;31;20580;-71
2022/06/01 01:35:49;;;;;;;17.50;10.18;;;;;;;13.06;100.00;98570.22;4483200;32;20085;-71
2022/06/01 01:38:35;;;;;;;23.92;11.60;;;;;;;13.09;100.00;98562.00;4485259;31;20096;-71
2022/06/01 01:41:11;;;;;;;25.30;12.20;;;;;;;13.15;100.00;98564.00;4483490;32;20497;-71
2022/06/01 01:43:43;;;;;;;23.75;13.05;;;;;;;13.19;100.00;98562.72;4484925;31;20092;-71
2022/06/01 01:46:11;;;;;;;31.55;15.38;;;;;;;13.38;100.00;98566.09;4483460;32;20430;-71
2022/06/01 01:48:38;;;;;;;39.15;17.10;;;;;;;13.53;100.00;98559.22;4484290;31;20519;-71
2022/06/01 01:51:06;;;;;;;30.95;15.57;;;;;;;13.65;100.00;98563.19;4484703;31;20092;-71
2022/06/01 01:53:34;;;;;;;28.60;13.68;;;;;;;13.74;100.00;98565.84;4484785;31;20120;-71
2022/06/01 01:56:25;;;;;;;28.50;15.50;;;;;;;13.64;100.00;98558.09;4484689;31;20108;-71
2022/06/01 01:59:16;;;;;;;34.00;15.88;;;;;;;13.65;100.00;98557.91;4483438;32;20112;-71
2022/06/01 02:02:10;;;;;;;29.50;16.35;;;;;;;13.68;100.00;98555.97;4483506;32;20147;-71
2022/06/01 02:07:40;;;;;;;34.95;17.10;;;;;;;13.79;100.00;98553.00;4409441;32;20116;-71
2022/06/01 02:12:53;;;;;;;38.90;18.12;;;;;;;14.01;100.00;98543.66;4419987;32;20117;-71
2022/06/01 02:15:25;;;;;;;32.92;17.45;;;;;;;14.19;100.00;98551.38;4419968;32;20140;-71
2022/06/01 02:17:58;;;;;;;34.50;17.23;;;;;;;14.23;100.00;98544.81;4419897;32;20166;-71
2022/06/01 02:20:33;;;;;;;40.83;17.45;;;;;;;14.25;100.00;98552.53;4419902;32;20161;-71
2022/06/01 02:23:01;;;;;;;37.15;16.37;;;;;;;14.28;100.00;98542.47;4419906;32;20116;-71
2022/06/01 02:25:29;;;;;;;34.55;16.23;;;;;;;14.34;100.00;98549.72;4419695;32;20121;-71
2022/06/01 02:27:57;;;;;;;35.63;16.83;;;;;;;14.30;100.00;98551.03;4406938;32;20120;-71
2022/06/01 02:30:45;;;;;;;36.72;17.33;;;;;;;14.24;100.00;98561.44;4406943;32;20125;-71
2022/06/01 02:33:17;;;;;;;29.05;14.52;;;;;;;14.35;100.00;98555.81;4419063;32;20456;-71
2022/06/01 02:35:48;;;;;;;29.08;14.45;;;;;;;14.38;100.00;98558.94;4406667;32;20102;-71
2022/06/01 02:38:21;;;;;;;28.90;14.32;;;;;;;14.39;100.00;98557.12;4407163;32;20176;-71
2022/06/01 02:40:49;;;;;;;28.70;14.00;;;;;;;14.34;100.00;98552.34;4415431;32;20471;-71
2022/06/01 02:43:16;;;;;;;30.23;14.68;;;;;;;14.42;100.00;98564.69;4484225;31;20164;-71
2022/06/01 02:45:43;;;;;;;26.85;14.25;;;;;;;14.44;100.00;98557.44;4483919;31;20088;-71
2022/06/01 02:48:11;;;;;;;28.40;14.73;;;;;;;14.45;100.00;98558.28;4484105;31;20111;-71
2022/06/01 02:50:38;;;;;;;29.73;15.13;;;;;;;14.48;100.00;98557.94;4484149;31;20123;-71
2022/06/01 02:53:05;;;;;;;30.40;14.15;;;;;;;14.47;100.00;98564.19;4483859;31;20103;-72
2022/06/01 02:55:33;;;;;;;27.92;15.07;;;;;;;14.50;100.00;98561.22;4483922;31;20119;-71
2022/06/01 02:58:01;;;;;;;28.10;15.38;;;;;;;14.42;100.00;98554.16;4483670;31;20092;-71
2022/06/01 03:00:40;;;;;;;30.37;14.55;;;;;;;14.49;100.00;98555.13;4484089;31;20097;-71
2022/06/01 03:03:10;;;;;;;27.77;14.40;;;;;;;14.45;100.00;98560.91;4486294;31;20084;-71
2022/06/01 03:05:39;;;;;;;27.83;14.13;;;;;;;14.32;100.00;98551.72;4485626;31;20096;-71
2022/06/01 03:08:07;;;;;;;27.13;14.07;;;;;;;14.38;100.00;98558.94;4485936;31;20100;-72
2022/06/01 03:10:34;;;;;;;32.72;15.82;;;;;;;14.40;100.00;98553.50;4485966;31;20089;-72
2022/06/01 03:13:04;;;;;;;31.30;14.75;;;;;;;14.52;100.00;98548.72;4486000;31;20112;-72
2022/06/01 03:15:31;;;;;;;31.67;15.38;;;;;;;14.47;100.00;98551.81;4485887;31;20505;-71
2022/06/01 03:17:59;;;;;;;31.95;15.70;;;;;;;14.59;100.00;98543.59;4485981;31;20140;-72
2022/06/01 03:20:27;;;;;;;29.55;15.50;;;;;;;14.57;100.00;98551.66;4485812;31;20115;-71
2022/06/01 03:22:57;;;;;;;34.80;15.70;;;;;;;14.59;100.00;98544.41;4485720;31;20092;-71
2022/06/01 03:25:27;;;;;;;35.55;15.98;;;;;;;14.54;100.00;98539.63;4486043;31;20114;-71
2022/06/01 03:27:59;;;;;;;38.63;17.48;;;;;;;14.56;100.00;98547.38;4485719;31;20114;-71
2022/06/01 03:30:27;;;;;;;31.35;16.48;;;;;;;14.61;100.00;98562.72;4485979;31;20102;-71
2022/06/01 03:32:54;;;;;;;33.45;16.75;;;;;;;14.63;100.00;98569.47;4485631;31;20096;-71
2022/06/01 03:35:24;;;;;;;36.15;15.85;;;;;;;14.62;100.00;98586.28;4485320;31;20119;-71
2022/06/01 03:37:52;;;;;;;36.90;17.75;;;;;;;14.62;100.00;98602.09;4485981;31;20110;-71
2022/06/01 03:40:21;;;;;;;35.58;15.73;;;;;;;14.52;100.00;98615.44;4485672;31;20084;-71
2022/06/01 03:42:48;;;;;;;28.52;14.77;;;;;;;14.35;100.00;98619.03;4485674;31;20221;-71
2022/06/01 03:48:02;;;;;;;28.05;13.52;;;;;;;13.90;100.00;98631.69;4485643;32;20478;-71
2022/06/01 03:50:30;;;;;;;31.05;13.82;;;;;;;13.79;100.00;98632.00;4485696;31;20164;-71
2022/06/01 03:52:57;;;;;;;25.50;13.73;;;;;;;13.85;100.00;98623.44;4485694;31;20088;-72
2022/06/01 03:55:24;;;;;;;32.00;13.60;;;;;;;13.90;100.00;98629.06;4485663;31;20130;-72
2022/06/01 03:57:51;;;;;;;28.40;15.50;;;;;;;13.95;100.00;98625.94;4485746;31;20118;-71
2022/06/01 04:00:22;;;;;;;38.13;17.23;;;;;;;13.98;100.00;98615.91;4485630;31;20104;-71
2022/06/01 04:02:49;;;;;;;33.75;17.95;;;;;;;14.04;100.00;98611.00;4484280;32;20119;-71
2022/06/01 04:05:17;;;;;;;30.98;15.88;;;;;;;14.08;100.00;98607.88;4485285;31;20096;-72
2022/06/01 04:07:44;;;;;;;36.83;16.62;;;;;;;14.18;100.00;98608.50;4482984;31;80317;-71
2022/06/01 04:10:12;;;;;;;35.45;17.10;;;;;;;14.27;100.00;98611.16;4485299;31;20099;-71
2022/06/01 04:12:40;;;;;;;34.97;17.55;;;;;;;14.24;100.00;98622.84;4483658;32;20122;-71
2022/06/01 04:15:08;;;;;;;33.08;18.02;;;;;;;14.21;100.00;98625.81;4485414;31;20108;-71
2022/06/01 04:17:36;;;;;;;36.05;17.95;;;;;;;14.25;100.00;98618.41;4487796;31;20175;-72
2022/06/01 04:20:05;;;;;;;38.50;19.70;;;;;;;14.34;100.00;98620.06;4488686;31;20771;-71
2022/06/01 04:22:32;;;;;;;39.10;19.25;;;;;;;14.58;100.00;98621.00;4486722;31;20224;-72
2022/06/01 04:25:00;;;;;;;39.33;20.08;;;;;;;14.71;100.00;98621.37;4485467;31;20112;-71
2022/06/01 04:27:27;;;;;;;35.45;19.25;;;;;;;14.81;100.00;98624.66;4485305;31;20133;-73
2022/06/01 04:29:54;;;;;;;39.25;20.27;;;;;;;14.95;100.00;98633.69;4485357;31;20104;-71
2022/06/01 04:32:27;;;;;;;36.10;18.73;;;;;;;15.12;100.00;98636.28;4485303;32;20549;-71
2022/06/01 04:34:54;;;;;;;38.80;18.57;;;;;;;15.35;100.00;98637.19;4483875;32;20139;-71
2022/06/01 04:37:22;;;;;;;35.63;18.77;;;;;;;15.61;100.00;98644.03;4485056;32;20179;-72
2022/06/01 04:39:49;;;;;;;37.22;19.55;;;;;;;15.80;100.00;98640.12;4485331;31;20096;-72
2022/06/01 04:42:16;;;;;;;34.30;18.80;;;;;;;16.07;100.00;98633.53;4485377;31;20201;-72
2022/06/01 04:44:43;;;;;;;26.50;16.62;;;;;;;16.22;100.00;98622.19;4485407;31;20648;-72
2022/06/01 04:47:11;;;;;;;29.60;16.40;;;;;;;16.57;100.00;98617.28;4485582;31;20452;-72
2022/06/01 04:49:39;;;;;;;30.23;16.73;;;;;;;16.57;100.00;98633.16;4485163;31;20144;-72
2022/06/01 04:52:07;;;;;;;32.58;16.98;;;;;;;16.44;100.00;98624.00;4485290;31;20120;-72
2022/06/01 04:54:34;;;;;;;29.17;16.85;;;;;;;16.46;100.00;98619.34;4482726;31;20128;-72
2022/06/01 04:57:01;;;;;;;31.00;16.77;;;;;;;16.71;100.00;98624.41;4481801;31;20092;-72
2022/06/01 04:59:28;;;;;;;27.65;16.17;;;;;;;16.88;100.00;98624.28;4483096;31;20100;-72
2022/06/01 05:01:56;;;;;;;27.85;15.35;;;;;;;16.96;100.00;98622.37;4477823;31;20097;-72
2022/06/01 05:04:23;;;;;;;26.52;14.45;;;;;;;17.07;100.00;98617.62;4480242;32;20104;-72
2022/06/01 05:06:50;;;;;;;30.48;15.02;;;;;;;17.15;100.00;98634.25;4482937;32;20118;-72
2022/06/01 05:09:17;;;;;;;30.52;15.48;;;;;;;17.22;100.00;98622.94;4481468;31;20385;-71
2022/06/01 05:11:45;;;;;;;28.00;14.23;;;;;;;17.24;100.00;98636.81;4480947;32;20105;-71
2022/06/01 05:14:12;;;;;;;25.75;14.60;;;;;;;17.11;100.00;98635.63;4478136;32;20139;-71
2022/06/01 05:16:39;;;;;;;24.52;14.48;;;;;;;16.95;100.00;98638.44;4478782;31;20647;-72
2022/06/01 05:19:06;;;;;;;24.92;13.40;;;;;;;16.74;100.00;98633.81;4483497;31;20124;-71
2022/06/01 05:21:34;;;;;;;24.35;12.80;;;;;;;16.75;100.00;98638.94;4482569;32;20454;-71
2022/06/01 05:24:01;;;;;;;23.85;12.50;;;;;;;16.74;100.00;98645.22;4479441;31;20101;-71
2022/06/01 05:26:28;;;;;;;19.90;11.43;;;;;;;16.74;100.00;98653.16;4482671;32;20172;-71
2022/06/01 05:28:56;;;;;;;26.17;11.52;;;;;;;16.90;100.00;98659.34;4483672;31;20118;-71
2022/06/01 05:31:23;;;;;;;17.98;10.27;;;;;;;17.18;100.00;98665.66;4482680;32;20122;-73
2022/06/01 05:33:51;;;;;;;22.98;11.93;;;;;;;17.04;100.00;98661.16;4485546;31;20146;-73
2022/06/01 05:36:18;;;;;;;19.00;10.73;;;;;;;17.02;100.00;98666.63;4481204;32;20088;-73
2022/06/01 05:38:46;;;;;;;16.85;9.40;;;;;;;16.85;100.00;98665.09;4478307;31;20084;-73
2022/06/01 05:41:13;;;;;;;18.60;10.15;;;;;;;16.75;100.00;98670.66;4480103;32;20120;-73
2022/06/01 05:43:41;;;;;;;13.75;8.20;;;;;;;16.62;100.00;98667.81;4482995;31;20138;-72
2022/06/01 05:46:09;;;;;;;13.20;8.25;;;;;;;16.45;100.00;98670.59;4482159;32;20141;-73
2022/06/01 05:48:36;;;;;;;16.45;8.02;;;;;;;16.30;100.00;98672.34;4482363;31;20541;-73
2022/06/01 05:51:03;;;;;;;19.67;9.10;;;;;;;16.32;100.00;98673.00;4481956;31;20214;-73
2022/06/01 05:53:38;;;;;;;11.95;8.23;;;;;;;16.26;100.00;98676.34;4475804;31;20111;-73
2022/06/01 05:56:06;;;;;;;11.38;7.70;;;;;;;16.20;100.00;98692.91;4481921;31;20128;-72
2022/06/01 05:58:33;;;;;;;11.43;8.02;;;;;;;16.08;100.00;98692.50;4478047;31;20092;-72
2022/06/01 06:01:05;;;;;;;13.05;7.50;;;;;;;15.79;100.00;98694.78;4481910;31;20104;-72
2022/06/01 06:03:33;;;;;;;12.95;8.32;;;;;;;15.61;100.00;98691.56;4481172;31;20235;-73
2022/06/01 06:06:14;;;;;;;16.42;10.27;;;;;;;15.63;100.00;98688.75;4482110;32;20088;-73
2022/06/01 06:08:52;;;;;;;14.45;8.82;;;;;;;15.73;100.00;98689.31;4483411;31;20100;-75
2022/06/01 06:11:26;;;;;;;16.20;8.93;;;;;;;15.60;100.00;98687.25;4480722;32;20131;-75
2022/06/01 06:13:55;;;;;;;14.03;7.97;;;;;;;15.68;100.00;98692.50;4481034;31;20457;-74
2022/06/01 06:16:23;;;;;;;12.32;8.43;;;;;;;15.66;100.00;98689.22;4483226;31;20080;-75
2022/06/01 06:18:51;;;;;;;12.77;8.23;;;;;;;15.73;100.00;98687.53;4483559;31;20138;-73
2022/06/01 06:21:18;;;;;;;14.75;9.48;;;;;;;15.60;100.00;98706.56;4482474;31;20089;-73
2022/06/01 06:23:45;;;;;;;11.55;8.38;;;;;;;15.79;100.00;98707.16;4482886;31;20123;-74
2022/06/01 06:26:13;;;;;;;13.95;8.10;;;;;;;15.76;100.00;98710.97;4482279;31;20112;-74
2022/06/01 06:28:40;;;;;;;14.63;8.35;;;;;;;15.67;100.00;98708.50;4480191;31;20631;-74
2022/06/01 06:31:07;;;;;;;11.73;8.48;;;;;;;15.61;100.00;98710.03;4483508;31;20088;-74
2022/06/01 06:33:34;;;;;;;11.38;8.02;;;;;;;15.55;100.00;98710.72;4481686;31;20112;-74
2022/06/01 06:36:04;;;;;;;11.20;8.13;;;;;;;15.68;100.00;98713.63;4481199;32;20134;-73
2022/06/01 06:38:33;;;;;;;13.48;8.13;;;;;;;15.81;100.00;98720.22;4479843;31;20114;-74
2022/06/01 06:41:01;;;;;;;11.65;8.45;;;;;;;15.93;100.00;98717.00;4480994;31;20469;-72
2022/06/01 06:43:29;;;;;;;12.73;7.80;;;;;;;16.01;100.00;98720.63;4483429;31;20123;-73
2022/06/01 06:46:06;;;;;;;11.88;8.07;;;;;;;16.20;100.00;98721.97;4490412;31;20187;-73
2022/06/01 06:48:34;;;;;;;11.55;8.13;;;;;;;16.44;100.00;98727.13;4483981;31;20119;-75
2022/06/01 06:51:02;;;;;;;15.52;8.45;;;;;;;16.23;100.00;98727.75;4484000;31;20085;-73
2022/06/01 06:53:29;;;;;;;12.90;8.05;;;;;;;16.38;100.00;98729.63;4479570;32;20100;-73
2022/06/01 06:55:56;;;;;;;10.70;8.48;;;;;;;16.38;100.00;98719.91;4485128;31;20104;-74
2022/06/01 06:58:24;;;;;;;14.30;8.75;;;;;;;16.48;100.00;98724.94;4483841;31;20097;-72
2022/06/01 07:00:51;;;;;;;7.62;6.62;;;;;;;16.60;100.00;98728.00;4480962;31;20454;-73
2022/06/01 07:03:19;;;;;;;10.48;7.80;;;;;;;17.10;100.00;98734.56;4481365;32;20141;-74
2022/06/01 07:08:33;;;;;;;9.75;5.82;;;;;;;18.09;96.46;98734.28;4484165;32;20192;-75
2022/06/01 07:11:00;;;;;;;8.80;5.40;;;;;;;18.63;93.51;98740.94;4484326;32;20108;-79
2022/06/01 07:13:28;;;;;;;7.68;5.00;;;;;;;18.58;89.60;98746.00;4481769;31;20088;-75
2022/06/01 07:16:19;;;;;;;8.95;5.45;;;;;;;18.20;91.72;98746.25;4484991;32;20096;-73
2022/06/01 07:18:48;;;;;;;6.70;5.00;;;;;;;18.24;92.53;98742.22;4484053;31;20451;-72
2022/06/01 07:21:17;;;;;;;7.10;5.10;;;;;;;18.07;93.30;98751.37;4481969;31;20127;-75
2022/06/01 07:23:45;;;;;;;6.03;4.75;;;;;;;17.71;95.60;98752.13;4482111;31;20123;-74
2022/06/01 07:26:16;;;;;;;6.45;4.45;;;;;;;17.80;93.47;98750.19;4477293;31;20120;-74
2022/06/01 07:28:43;;;;;;;7.93;4.30;;;;;;;17.84;95.42;98746.19;4481424;31;20109;-73
2022/06/01 07:31:11;;;;;;;6.22;4.05;;;;;;;18.17;95.01;98751.06;4482141;31;20134;-74
2022/06/01 07:33:39;;;;;;;7.18;4.03;;;;;;;18.75;91.25;98751.06;4482397;31;20108;-74
2022/06/01 07:36:09;;;;;;;4.60;3.65;;;;;;;19.03;86.95;98742.34;4481312;31;20088;-74
2022/06/01 07:44:13;;;;;;;4.32;3.40;;;;;;;19.41;83.30;98747.31;4472593;32;20584;-74
2022/06/01 07:46:41;;;;;;;5.70;3.40;;;;;;;19.50;83.62;98759.44;4478302;31;20198;-74
2022/06/01 07:49:14;;;;;;;6.62;4.05;;;;;;;19.75;81.98;98756.31;4478737;31;20103;-74
2022/06/01 07:52:07;;;;;;;8.63;4.20;;;;;;;19.46;81.88;98760.84;4477073;32;20152;-74
2022/06/01 07:54:39;;;;;;;5.65;3.55;;;;;;;19.56;83.11;98763.97;4475140;32;20532;-74
2022/06/01 07:57:07;;;;;;;8.57;3.95;;;;;;;19.51;82.95;98766.37;4479264;31;20135;-74
2022/06/01 07:59:36;;;;;;;5.60;3.78;;;;;;;20.02;80.66;98771.38;4479678;31;20118;-74
2022/06/01 08:02:06;;;;;;;4.28;3.40;;;;;;;20.28;80.06;98767.16;4483138;31;20161;-74
2022/06/01 08:04:33;;;;;;;6.10;4.05;;;;;;;20.28;78.22;98774.34;4481650;31;20134;-74
2022/06/01 08:07:07;;;;;;;7.45;3.67;;;;;;;20.14;78.75;98778.81;4481651;32;20096;-74
2022/06/01 08:09:34;;;;;;;6.60;4.15;;;;;;;19.58;82.10;98777.88;4482082;32;20522;-74
2022/06/01 08:14:47;;;;;;;5.87;3.45;;;;;;;19.72;80.62;98768.13;4478531;31;20254;-74
2022/06/01 08:17:14;;;;;;;4.65;3.20;;;;;;;20.03;80.93;98778.34;4480978;31;20164;-74
2022/06/01 08:19:45;;;;;;;6.62;3.47;;;;;;;20.12;80.67;98779.00;4478921;32;20563;-75
2022/06/01 08:22:12;;;;;;;4.70;3.78;;;;;;;19.88;80.84;98780.31;4481064;32;20104;-75
2022/06/01 08:24:39;;;;;;;4.53;3.78;;;;;;;19.55;81.09;98778.25;4479342;32;20525;-74
2022/06/01 08:27:08;;;;;;;10.48;3.90;;;;;;;19.82;80.08;98778.47;4483101;31;20103;-74
2022/06/01 08:29:36;;;;;;;7.03;4.25;;;;;;;19.99;78.11;98779.75;4481936;31;20100;-74
2022/06/01 08:32:04;;;;;;;4.90;3.80;;;;;;;20.18;78.81;98799.47;4482297;32;20097;-75
2022/06/01 08:34:31;;;;;;;4.78;2.78;;;;;;;20.25;78.85;98791.50;4481172;31;20123;-75
2022/06/01 08:36:58;;;;;;;5.55;3.30;;;;;;;20.29;76.60;98798.09;4477476;31;20104;-75
2022/06/01 08:39:26;;;;;;;4.65;4.05;;;;;;;20.43;76.24;98801.59;4477724;31;20113;-75
2022/06/01 08:41:53;;;;;;;6.53;3.67;;;;;;;20.25;77.98;98798.69;4480617;31;20104;-75
2022/06/01 08:44:23;;;;;;;4.32;3.42;;;;;;;20.39;75.75;98793.22;4477534;31;20250;-73
2022/06/01 08:46:56;;;;;;;4.40;3.80;;;;;;;20.83;76.88;98798.25;4483278;31;20143;-73
2022/06/01 08:49:27;;;;;;;5.35;3.85;;;;;;;20.85;76.21;98793.56;4483052;32;20096;-75
2022/06/01 08:51:55;;;;;;;4.28;3.28;;;;;;;20.89;75.43;98792.94;4480952;32;20127;-73
2022/06/01 08:54:22;;;;;;;2.72;2.08;;;;;;;20.73;73.71;98796.78;4482796;31;20100;-75
2022/06/01 08:57:01;;;;;;;2.55;2.22;;;;;;;20.71;72.91;98804.19;4483061;31;20139;-75
2022/06/01 08:59:45;;;;;;;3.85;2.33;;;;;;;20.87;72.13;98810.94;4470200;32;20100;-75
2022/06/01 09:02:40;;;;;;;3.67;2.22;;;;;;;20.86;71.12;98804.00;4475431;32;20206;-75
2022/06/01 09:05:15;;;;;;;3.10;2.50;;;;;;;21.02;69.76;98808.09;4477870;32;20097;-75
2022/06/01 09:08:00;;;;;;;4.75;2.75;;;;;;;20.85;69.56;98815.66;4479639;32;20171;-75
2022/06/01 09:10:51;;;;;;;3.60;2.87;;;;;;;20.94;71.72;98805.63;4477921;32;20115;-76
2022/06/01 09:13:25;;;;;;;4.03;3.00;;;;;;;20.83;70.83;98808.88;4474741;32;20176;-75
2022/06/01 09:16:01;;;;;;;6.32;2.60;;;;;;;20.59;72.80;98808.41;4477662;32;20477;-75
2022/06/01 09:18:50;;;;;;;3.35;2.90;;;;;;;20.76;70.86;98814.22;4480718;32;20458;-76
2022/06/01 09:24:19;;;;;;;5.55;2.60;;;;;;;20.73;69.40;98820.75;4481481;31;20128;-75
2022/06/01 09:27:18;;;;;;;2.37;1.98;;;;;;;20.85;68.13;98813.00;4478350;31;20480;-76
2022/06/01 09:29:49;;;;;;;3.15;2.45;;;;;;;20.98;66.24;98820.16;4418089;32;20506;-75
2022/06/01 09:32:28;;;;;;;5.75;2.33;;;;;;;21.04;68.15;98807.88;4434669;32;20110;-75
2022/06/01 09:35:06;;;;;;;2.42;2.20;;;;;;;21.24;66.84;98815.88;4430905;32;20117;-75
2022/06/01 09:37:51;;;;;;;4.22;3.15;;;;;;;21.41;63.20;98811.78;4430254;32;20132;-75
2022/06/01 09:40:27;;;;;;;5.75;2.50;;;;;;;21.51;65.87;98815.91;4429605;32;20102;-77
2022/06/01 09:42:55;;;;;;;3.85;2.00;;;;;;;21.67;67.76;98817.34;4429932;32;20077;-77
2022/06/01 09:45:24;;;;;;;4.05;2.22;;;;;;;21.45;61.73;98829.00;4428996;32;20205;-76
2022/06/01 09:47:52;;;;;;;2.58;2.05;;;;;;;21.50;64.11;98824.91;4424126;32;20160;-76
2022/06/01 09:50:22;;;;;;;2.50;1.60;;;;;;;21.36;61.85;98832.91;4423935;32;20190;-76
2022/06/01 09:52:54;;;;;;;3.10;1.90;;;;;;;21.19;62.01;98824.50;4415423;32;20153;-74
2022/06/01 09:55:24;;;;;;;1.60;1.35;;;;;;;21.39;61.12;98832.50;4422861;32;20114;-75
2022/06/01 10:06:05;;;;;;;4.57;1.95;;;;;;;21.72;61.15;98823.66;4409197;32;20550;-74
2022/06/01 10:06:33;;;;;;;5.87;2.33;;;;;;;22.12;60.78;98818.22;4467329;32;20475;-75
2022/06/01 10:09:12;;;;;;;2.55;2.00;;;;;;;22.25;59.80;98820.00;4468338;32;20126;-75
2022/06/01 10:11:46;;;;;;;1.87;1.60;;;;;;;22.14;59.31;98824.16;4467731;32;20484;-73
2022/06/01 10:14:16;;;;;;;2.05;1.67;;;;;;;22.26;57.46;98819.00;4481078;31;20100;-74
2022/06/01 10:17:17;;;;;;;2.20;1.70;;;;;;;22.02;57.19;98831.19;4466177;32;20148;-74
2022/06/01 10:20:06;;;;;;;3.40;2.35;;;;;;;22.08;58.08;98825.00;4474783;32;20145;-72
2022/06/01 10:22:38;;;;;;;2.92;2.08;;;;;;;22.35;59.34;98824.94;4477572;31;20088;-73
2022/06/01 10:25:12;;;;;;;2.17;1.90;;;;;;;22.37;55.64;98830.88;4482195;32;20568;-75
2022/06/01 10:27:49;;;;;;;;;;;;;;;22.30;56.81;98835.37;4479954;32;20116;-74
2022/06/01 10:30:21;;;;;;;2.50;2.28;;;;;;;22.21;57.46;98831.31;4480304;31;20000;-75
2022/06/01 10:33:09;;;;;;;2.55;2.08;;;;;;;22.11;58.44;98831.78;4479004;32;20539;-75
2022/06/01 10:35:44;;;;;;;4.85;1.90;;;;;;;22.59;57.88;98827.87;4473622;32;20139;-75
2022/06/01 10:38:27;;;;;;;5.87;1.98;;;;;;;23.04;57.74;98835.81;4478827;32;20143;-75
2022/06/01 10:41:06;;;;;;;2.75;1.87;;;;;;;22.95;56.60;98834.47;4479686;32;20100;-75
2022/06/01 10:44:04;;;;;;;1.92;1.60;;;;;;;23.21;55.83;98834.31;4482680;32;20092;-75
2022/06/01 10:46:41;;;;;;;2.33;1.50;;;;;;;23.65;54.34;98836.16;4481089;31;20552;-74
2022/06/01 10:49:12;;;;;;;5.90;1.90;;;;;;;23.17;53.14;98834.97;4480977;32;20104;-75
2022/06/01 10:51:39;;;;;;;4.85;1.77;;;;;;;22.90;53.52;98829.75;4472258;32;20508;-75
2022/06/01 10:54:48;;;;;;;3.55;1.75;;;;;;;22.84;53.76;98835.97;4480729;31;20113;-73
2022/06/01 10:57:19;;;;;;;2.80;1.65;;;;;;;22.83;53.72;98834.31;4412001;32;20446;-74
2022/06/01 10:59:47;;;;;;;3.30;1.50;;;;;;;23.06;52.46;98832.94;4411607;32;20187;-73
2022/06/01 11:02:58;;;;;;;3.58;1.62;;;;;;;23.34;49.58;98825.34;4401648;32;20251;-75
2022/06/01 11:05:40;;;;;;;5.40;1.58;;;;;;;23.79;50.94;98834.22;4343245;32;20111;-75
2022/06/01 11:08:17;;;;;;;2.95;1.65;;;;;;;23.74;49.95;98824.97;4354692;32;20115;-75
2022/06/01 11:10:59;;;;;;;2.60;1.40;;;;;;;23.58;51.07;98836.25;4340619;32;20131;-75
2022/06/01 11:13:48;;;;;;;2.67;1.52;;;;;;;23.27;50.30;98835.28;4356897;32;20174;-75
2022/06/01 11:16:24;;;;;;;1.95;1.50;;;;;;;23.54;51.36;98830.53;4346383;32;20183;-74
2022/06/01 11:19:10;;;;;;;2.85;1.60;;;;;;;23.67;49.29;98842.94;4356460;32;20508;-75
2022/06/01 11:21:47;;;;;;;3.65;1.95;;;;;;;23.54;48.91;98833.22;4350869;32;20758;-74
2022/06/01 11:24:36;;;;;;;2.05;1.85;;;;;;;23.77;49.12;98839.78;4358094;32;20528;-74
2022/06/01 11:27:32;;;;;;;3.42;2.00;;;;;;;23.82;47.58;98826.53;4359469;32;20472;-74
2022/06/01 11:30:22;;;;;;;4.43;1.70;;;;;;;24.11;47.43;98824.19;4362517;32;20137;-74
2022/06/01 11:33:22;;;;;;;3.42;1.70;;;;;;;24.38;49.01;98823.88;4394899;32;20438;-74
2022/06/01 11:36:32;;;;;;;2.05;1.52;;;;;;;24.00;48.61;98825.78;4420450;32;20094;-75
2022/06/01 11:39:38;;;;;;;1.92;1.65;;;;;;;24.13;49.27;98826.66;4429804;32;20093;-74
2022/06/01 11:42:16;;;;;;;2.83;1.48;;;;;;;24.21;48.29;98824.50;4480313;32;20089;-75
2022/06/01 11:45:01;;;;;;;1.30;1.20;;;;;;;24.93;47.35;98813.03;4482392;31;20092;-74
2022/06/01 11:47:43;;;;;;;1.40;1.30;;;;;;;24.78;43.81;98823.34;4476404;32;20108;-74
2022/06/01 11:50:40;;;;;;;1.83;1.52;;;;;;;24.66;44.30;98823.31;4473007;32;20080;-75
2022/06/01 11:53:17;;;;;;;2.05;1.52;;;;;;;24.65;44.44;98828.91;4399218;32;20783;-74
2022/06/01 11:55:49;;;;;;;2.08;1.20;;;;;;;24.79;45.94;98825.81;4386975;32;20114;-75
2022/06/01 11:58:18;;;;;;;3.30;1.30;;;;;;;24.54;44.52;98827.78;4399914;32;20524;-75
2022/06/01 12:00:48;;;;;;;2.28;1.30;;;;;;;24.36;45.04;98824.09;4395611;32;20181;-74
2022/06/01 12:03:15;;;;;;;1.50;1.37;;;;;;;24.46;44.98;98815.53;4397298;32;20602;-75
2022/06/01 12:06:02;;;;;;;2.55;1.23;;;;;;;24.44;45.04;98821.09;4394763;32;20538;-75
2022/06/01 12:09:00;;;;;;;2.78;1.27;;;;;;;24.38;44.60;98807.81;4393292;32;20978;-74
2022/06/01 12:11:43;;;;;;;1.67;1.30;;;;;;;24.96;43.93;98819.78;4388542;32;20141;-75
2022/06/01 12:14:32;;;;;;;1.67;1.58;;;;;;;25.33;43.07;98825.84;4398509;32;20189;-74
2022/06/01 12:17:17;;;;;;;2.17;1.40;;;;;;;25.62;42.38;98823.28;4390727;32;20137;-74